フナフティ島 の空港の天気 - METARとTAF

フナフティ国際空港 ( NGFU / FUN ) - ツバル フナフティ島
飛行場実況気象(Metar)
観測時間10/18 20:00 TVT (10/18 08:00 UTC)
風向・風速南東 2m/s
視程10km以上
天気現象
少しの雲 雲底高度 610m
全天の4割程度の雲 雲底高度 9450m
気温29℃
湿度79%
気圧1012hPa
METARNGFU 180800Z 14004KT 9999 FEW020 SCT310 29/25 Q1012
過去の天気等 Google飛行場航空写真 Wunderground天気予報

過去48時間のMETAR

飛行場予報(TAF)
発表時間: 10/18 17:12 TVT (10/18 05:12 UTC)
予報対象時間: 18日18時 TVT ~ 19日18時 TVT
風向・風速東南東 2m/s
視程10km以上
全天の4割程度の雲 雲底高度 550m
全天の8割程度の雲 雲底高度 3050m
18日18時 TVT ~ 18日24時 TVT に 確率 30% で一時的に
視程5000m
天気現象雷雨
少しの積乱雲 雲底高度 550m
19日0時 TVT ~ 19日12時 TVT に 確率 40% で一時的に
視程5000m
天気現象雷雨
全天の8割程度の雲 雲底高度 460m
少しの積乱雲 雲底高度 550m
TAF NGFU 180512Z 1806/1906 11004KT 9999 SCT018 BKN100
PROB30 TEMPO 1806/1812 5000 TSRA FEW018CB
PROB40 TEMPO 1812/1824 5000 TSRA BKN015 FEW018CB